Time;durP1;ratioP1;P1;durP2;ratioP2;P2;SDS_P1;SDS_P2;PMS_P1;PMS_P2;Temp;Humidity;BMP_temperature;BMP_pressure;BME280_temperature;BME280_humidity;BME280_pressure;Samples;Min_cycle;Max_cycle;Signal;HPM_P1;HPM_P2
2021/06/18 00:01:08;0.00;0.00;0.62;0.00;0.00;0.62;;;;;25.10;53.70;;;;;;2247387;61;2478;-70
2021/06/18 00:03:34;0.00;0.00;0.62;0.00;0.00;0.62;;;;;25.10;53.70;;;;;;2244992;61;3479;-67
2021/06/18 00:06:01;0.00;0.00;0.62;0.00;0.00;0.62;;;;;25.10;53.70;;;;;;2246707;61;3103;-68
2021/06/18 00:08:26;0.00;0.00;0.62;0.00;0.00;0.62;;;;;25.10;53.80;;;;;;2247178;61;3427;-68
2021/06/18 00:10:52;0.00;0.00;0.62;0.00;0.00;0.62;;;;;25.10;53.70;;;;;;2248815;61;2703;-70
2021/06/18 00:13:18;0.00;0.00;0.62;0.00;0.00;0.62;;;;;25.10;53.80;;;;;;2247628;61;2483;-67
2021/06/18 00:15:43;0.00;0.00;0.62;0.00;0.00;0.62;;;;;25.10;53.80;;;;;;2246738;61;4241;-70
2021/06/18 00:18:09;233922.00;0.78;404.30;125458.00;0.42;217.50;;;;;25.10;53.90;;;;;;2247590;61;4550;-72
2021/06/18 00:20:34;0.00;0.00;0.62;0.00;0.00;0.62;;;;;25.10;53.90;;;;;;2243253;61;4388;-67
2021/06/18 00:23:00;0.00;0.00;0.62;0.00;0.00;0.62;;;;;25.10;53.90;;;;;;2248334;61;2635;-68
2021/06/18 00:25:26;0.00;0.00;0.62;0.00;0.00;0.62;;;;;25.10;53.90;;;;;;2247231;61;4599;-67
2021/06/18 00:27:52;0.00;0.00;0.62;0.00;0.00;0.62;;;;;25.10;54.10;;;;;;2248419;61;5152;-72
2021/06/18 00:30:18;0.00;0.00;0.62;0.00;0.00;0.62;;;;;25.10;54.10;;;;;;2248065;61;3440;-67
2021/06/18 00:32:44;0.00;0.00;0.62;0.00;0.00;0.62;;;;;25.10;54.10;;;;;;2243772;61;3568;-69
2021/06/18 00:35:10;0.00;0.00;0.62;0.00;0.00;0.62;;;;;25.10;54.10;;;;;;2247938;61;3362;-68
2021/06/18 00:37:36;0.00;0.00;0.62;0.00;0.00;0.62;;;;;25.10;54.10;;;;;;2247529;61;4180;-70
2021/06/18 00:40:03;0.00;0.00;0.62;0.00;0.00;0.62;;;;;25.10;54.10;;;;;;2244872;61;2890;-70
2021/06/18 00:42:29;227878.00;0.76;393.90;0.00;0.00;0.62;;;;;25.10;54.20;;;;;;2246723;61;3297;-70
2021/06/18 00:44:54;0.00;0.00;0.62;0.00;0.00;0.62;;;;;25.10;54.20;;;;;;2247916;61;2840;-67
2021/06/18 00:47:20;0.00;0.00;0.62;0.00;0.00;0.62;;;;;25.10;54.20;;;;;;2246415;61;3434;-68
2021/06/18 00:49:46;0.00;0.00;0.62;0.00;0.00;0.62;;;;;25.10;54.20;;;;;;2247507;61;2357;-67
2021/06/18 00:52:12;0.00;0.00;0.62;0.00;0.00;0.62;;;;;25.10;54.20;;;;;;2247094;61;3132;-68
2021/06/18 00:54:39;0.00;0.00;0.62;0.00;0.00;0.62;;;;;25.10;54.30;;;;;;2244922;61;3961;-70
2021/06/18 00:57:05;0.00;0.00;0.62;0.00;0.00;0.62;;;;;25.10;54.30;;;;;;2246838;61;2397;-67
2021/06/18 00:59:31;40374.00;0.13;70.54;0.00;0.00;0.62;;;;;25.10;54.30;;;;;;2244163;61;3761;-67
2021/06/18 01:01:57;102381.00;0.34;177.68;0.00;0.00;0.62;;;;;25.10;54.30;;;;;;2249510;61;2912;-68
2021/06/18 01:04:24;0.00;0.00;0.62;0.00;0.00;0.62;;;;;25.10;54.30;;;;;;2245553;61;3964;-72
2021/06/18 01:06:57;0.00;0.00;0.62;0.00;0.00;0.62;;;;;25.10;54.30;;;;;;2238453;61;3201;-68
2021/06/18 01:09:22;0.00;0.00;0.62;0.00;0.00;0.62;;;;;25.10;54.30;;;;;;2242618;61;3375;-69
2021/06/18 01:12:08;0.00;0.00;0.62;0.00;0.00;0.62;;;;;25.10;54.40;;;;;;2247407;61;2652;-69
2021/06/18 01:14:57;0.00;0.00;0.62;0.00;0.00;0.62;;;;;25.10;54.40;;;;;;2245738;61;3638;-73
2021/06/18 01:17:32;0.00;0.00;0.62;0.00;0.00;0.62;;;;;25.10;54.40;;;;;;2246054;61;4088;-68
2021/06/18 01:20:04;0.00;0.00;0.62;0.00;0.00;0.62;;;;;25.10;54.40;;;;;;2246719;61;3688;-67
2021/06/18 01:22:30;0.00;0.00;0.62;0.00;0.00;0.62;;;;;25.10;54.60;;;;;;2246209;61;3011;-69
2021/06/18 01:25:33;0.00;0.00;0.62;0.00;0.00;0.62;;;;;25.10;54.60;;;;;;2242871;61;3656;-68
2021/06/18 01:28:11;220013.00;0.73;380.37;0.00;0.00;0.62;;;;;25.10;54.60;;;;;;2246869;61;2992;-69
2021/06/18 01:30:37;0.00;0.00;0.62;0.00;0.00;0.62;;;;;25.10;54.60;;;;;;2247721;61;2345;-67
2021/06/18 01:33:10;43005.00;0.14;75.09;0.00;0.00;0.62;;;;;25.10;54.70;;;;;;2243755;61;3553;-71
2021/06/18 01:35:45;0.00;0.00;0.62;0.00;0.00;0.62;;;;;25.10;54.70;;;;;;2239410;61;3430;-70
2021/06/18 01:38:11;0.00;0.00;0.62;0.00;0.00;0.62;;;;;25.10;54.70;;;;;;2242034;61;2275;-69
2021/06/18 01:40:37;0.00;0.00;0.62;0.00;0.00;0.62;;;;;25.10;54.70;;;;;;2246693;61;3194;-67
2021/06/18 01:43:05;0.00;0.00;0.62;0.00;0.00;0.62;;;;;25.10;54.70;;;;;;2242630;61;4150;-68
2021/06/18 01:45:30;0.00;0.00;0.62;0.00;0.00;0.62;;;;;25.10;54.70;;;;;;2242752;61;2908;-69
2021/06/18 01:47:56;170729.00;0.57;295.52;36917.00;0.12;64.55;;;;;25.10;54.80;;;;;;2247650;61;3937;-72
2021/06/18 01:50:22;0.00;0.00;0.62;0.00;0.00;0.62;;;;;25.10;54.80;;;;;;2243442;61;2472;-71
2021/06/18 01:52:55;0.00;0.00;0.62;0.00;0.00;0.62;;;;;25.10;54.80;;;;;;2241776;61;3496;-67
2021/06/18 01:55:22;0.00;0.00;0.62;0.00;0.00;0.62;;;;;25.10;54.80;;;;;;2248007;61;2531;-71
2021/06/18 01:57:48;23233.00;0.08;40.87;0.00;0.00;0.62;;;;;25.10;54.80;;;;;;2246113;61;3568;-67
2021/06/18 02:00:14;0.00;0.00;0.62;0.00;0.00;0.62;;;;;25.10;54.80;;;;;;2246489;61;2415;-68
2021/06/18 02:02:40;0.00;0.00;0.62;0.00;0.00;0.62;;;;;25.10;54.90;;;;;;2248463;61;3595;-70
2021/06/18 02:05:06;0.00;0.00;0.62;0.00;0.00;0.62;;;;;25.10;54.90;;;;;;2239293;61;4322;-70
2021/06/18 02:07:32;0.00;0.00;0.62;0.00;0.00;0.62;;;;;25.10;54.90;;;;;;2243962;61;5142;-68
2021/06/18 02:09:58;0.00;0.00;0.62;0.00;0.00;0.62;;;;;25.10;54.90;;;;;;2241851;61;2547;-67
2021/06/18 02:12:23;0.00;0.00;0.62;0.00;0.00;0.62;;;;;25.10;55.10;;;;;;2242768;61;2715;-70
2021/06/18 02:14:49;0.00;0.00;0.62;0.00;0.00;0.62;;;;;25.10;55.10;;;;;;2245194;61;2797;-71
2021/06/18 02:17:15;0.00;0.00;0.62;0.00;0.00;0.62;;;;;25.10;55.10;;;;;;2244813;61;4814;-70
2021/06/18 02:19:41;0.00;0.00;0.62;0.00;0.00;0.62;;;;;25.10;55.10;;;;;;2246683;61;3572;-68
2021/06/18 02:22:07;0.00;0.00;0.62;0.00;0.00;0.62;;;;;25.10;55.10;;;;;;2245731;61;3337;-68
2021/06/18 02:24:33;30303.00;0.10;53.11;0.00;0.00;0.62;;;;;25.10;55.10;;;;;;2245473;61;2729;-69
2021/06/18 02:26:59;0.00;0.00;0.62;0.00;0.00;0.62;;;;;25.10;55.10;;;;;;2238925;61;5137;-68
2021/06/18 02:29:24;0.00;0.00;0.62;0.00;0.00;0.62;;;;;25.10;55.10;;;;;;2242645;61;4262;-68
2021/06/18 02:31:50;0.00;0.00;0.62;0.00;0.00;0.62;;;;;25.10;55.10;;;;;;2246438;61;2354;-68
2021/06/18 02:34:16;44448.00;0.15;77.58;0.00;0.00;0.62;;;;;25.10;55.20;;;;;;2247133;61;4403;-70
2021/06/18 02:36:42;0.00;0.00;0.62;0.00;0.00;0.62;;;;;25.10;55.20;;;;;;2243981;61;3227;-67
2021/06/18 02:39:08;0.00;0.00;0.62;0.00;0.00;0.62;;;;;25.10;55.20;;;;;;2244577;61;4146;-71
2021/06/18 02:41:34;0.00;0.00;0.62;0.00;0.00;0.62;;;;;25.10;55.20;;;;;;2242872;61;2900;-69
2021/06/18 02:44:02;0.00;0.00;0.62;0.00;0.00;0.62;;;;;25.10;55.20;;;;;;2246500;61;4117;-73
2021/06/18 02:46:41;0.00;0.00;0.62;0.00;0.00;0.62;;;;;25.10;55.20;;;;;;2244873;61;2691;-68
2021/06/18 02:49:09;0.00;0.00;0.62;0.00;0.00;0.62;;;;;25.10;55.20;;;;;;2245471;61;2513;-68
2021/06/18 02:51:42;36362.00;0.12;63.59;0.00;0.00;0.62;;;;;25.10;55.20;;;;;;2242632;61;3327;-70
2021/06/18 02:54:13;0.00;0.00;0.62;0.00;0.00;0.62;;;;;25.10;55.20;;;;;;2242269;61;3394;-70
2021/06/18 02:56:47;0.00;0.00;0.62;0.00;0.00;0.62;;;;;25.10;55.20;;;;;;2246262;61;4158;-72
2021/06/18 02:59:26;0.00;0.00;0.62;0.00;0.00;0.62;;;;;25.10;55.20;;;;;;2243255;61;2770;-70
2021/06/18 03:01:53;0.00;0.00;0.62;0.00;0.00;0.62;;;;;25.10;55.20;;;;;;2243625;61;3788;-68
2021/06/18 03:04:22;0.00;0.00;0.62;0.00;0.00;0.62;;;;;25.10;55.20;;;;;;2238446;61;4274;-70
2021/06/18 03:06:52;0.00;0.00;0.62;0.00;0.00;0.62;;;;;25.10;55.30;;;;;;2243019;61;3372;-69
2021/06/18 03:09:23;0.00;0.00;0.62;0.00;0.00;0.62;;;;;25.10;55.20;;;;;;2246391;61;3002;-72
2021/06/18 03:11:49;0.00;0.00;0.62;0.00;0.00;0.62;;;;;25.10;55.20;;;;;;2244994;61;3791;-71
2021/06/18 03:14:16;51663.00;0.17;90.06;0.00;0.00;0.62;;;;;25.10;55.30;;;;;;2242162;61;2482;-68
2021/06/18 03:20:07;0.00;0.00;0.62;0.00;0.00;0.62;;;;;25.10;55.20;;;;;;2245860;58;8180;-68
2021/06/18 03:22:32;0.00;0.00;0.62;0.00;0.00;0.62;;;;;25.10;55.20;;;;;;2244256;61;7696;-68
2021/06/18 03:24:58;147921.00;0.49;256.22;0.00;0.00;0.62;;;;;25.10;55.20;;;;;;2241810;61;8069;-69
2021/06/18 03:27:24;0.00;0.00;0.62;0.00;0.00;0.62;;;;;25.10;55.20;;;;;;2240964;61;5753;-67
2021/06/18 03:29:50;0.00;0.00;0.62;0.00;0.00;0.62;;;;;25.10;55.30;;;;;;2244376;61;7775;-68
2021/06/18 03:32:17;0.00;0.00;0.62;0.00;0.00;0.62;;;;;25.10;55.20;;;;;;2241410;61;7532;-68
2021/06/18 03:34:43;0.00;0.00;0.62;0.00;0.00;0.62;;;;;25.10;55.30;;;;;;2237150;61;8167;-68
2021/06/18 03:37:09;112899.00;0.38;195.83;0.00;0.00;0.62;;;;;25.10;55.30;;;;;;2244612;61;5720;-73
2021/06/18 03:39:34;0.00;0.00;0.62;0.00;0.00;0.62;;;;;25.10;55.30;;;;;;2245952;61;5426;-70
2021/06/18 03:42:00;93156.00;0.31;161.76;0.00;0.00;0.62;;;;;25.10;55.30;;;;;;2246712;61;8049;-72
2021/06/18 03:44:25;0.00;0.00;0.62;0.00;0.00;0.62;;;;;25.10;55.40;;;;;;2244250;61;7919;-68
2021/06/18 03:46:52;0.00;0.00;0.62;0.00;0.00;0.62;;;;;25.10;55.30;;;;;;2246860;61;7946;-67
2021/06/18 03:49:18;46342.00;0.15;80.86;0.00;0.00;0.62;;;;;25.10;55.30;;;;;;2240881;61;8227;-71
2021/06/18 03:51:43;0.00;0.00;0.62;0.00;0.00;0.62;;;;;25.10;55.30;;;;;;2238121;61;8222;-69
2021/06/18 03:54:09;87667.00;0.29;152.28;0.00;0.00;0.62;;;;;25.10;55.30;;;;;;2237919;61;8021;-67
2021/06/18 03:56:36;0.00;0.00;0.62;0.00;0.00;0.62;;;;;25.10;55.30;;;;;;2244171;61;8182;-69
2021/06/18 03:59:01;0.00;0.00;0.62;0.00;0.00;0.62;;;;;25.10;55.40;;;;;;2245638;61;8163;-68
2021/06/18 04:01:27;0.00;0.00;0.62;0.00;0.00;0.62;;;;;25.10;55.30;;;;;;2247764;61;7830;-67
2021/06/18 04:03:53;0.00;0.00;0.62;0.00;0.00;0.62;;;;;25.10;55.30;;;;;;2246671;61;2559;-70
2021/06/18 04:06:19;0.00;0.00;0.62;0.00;0.00;0.62;;;;;25.10;55.30;;;;;;2241073;61;5199;-68
2021/06/18 04:08:44;0.00;0.00;0.62;0.00;0.00;0.62;;;;;25.10;55.30;;;;;;2243224;61;2541;-71
2021/06/18 04:11:10;0.00;0.00;0.62;0.00;0.00;0.62;;;;;25.10;55.40;;;;;;2245382;61;3410;-69
2021/06/18 04:13:36;0.00;0.00;0.62;0.00;0.00;0.62;;;;;25.10;55.30;;;;;;2243429;61;2832;-70
2021/06/18 04:16:02;0.00;0.00;0.62;0.00;0.00;0.62;;;;;25.10;55.30;;;;;;2243417;61;3384;-69
2021/06/18 04:18:28;0.00;0.00;0.62;0.00;0.00;0.62;;;;;25.10;56.40;;;;;;2246919;61;4023;-73
2021/06/18 04:20:53;107366.00;0.36;186.28;0.00;0.00;0.62;;;;;24.90;58.40;;;;;;2242504;61;2441;-71
2021/06/18 04:23:24;0.00;0.00;0.62;0.00;0.00;0.62;;;;;24.80;59.40;;;;;;2245792;61;3628;-72
2021/06/18 04:25:50;0.00;0.00;0.62;0.00;0.00;0.62;;;;;24.70;60.60;;;;;;2247086;61;2437;-72
2021/06/18 04:28:15;991325.00;3.30;1717.11;0.00;0.00;0.62;;;;;24.30;61.90;;;;;;2245986;61;4241;-72
2021/06/18 04:30:41;394370.00;1.31;680.13;258603.00;0.86;446.75;;;;;23.80;64.50;;;;;;2245589;61;3749;-71
2021/06/18 04:33:07;301003.00;1.00;519.64;48037.00;0.16;83.79;;;;;23.30;65.80;;;;;;2242760;61;4389;-73
2021/06/18 04:35:32;11566.00;0.04;20.66;0.00;0.00;0.62;;;;;23.20;66.20;;;;;;2245855;61;3359;-73
2021/06/18 04:37:59;115448.00;0.38;200.23;0.00;0.00;0.62;;;;;23.00;67.20;;;;;;2245882;61;4607;-73
2021/06/18 04:40:24;46053.00;0.15;80.36;0.00;0.00;0.62;;;;;22.90;67.60;;;;;;2242838;61;2863;-74
2021/06/18 04:42:50;123595.00;0.41;214.28;55696.00;0.19;97.04;;;;;22.90;67.80;;;;;;2247387;61;3474;-75
2021/06/18 04:45:18;80682.00;0.27;140.22;0.00;0.00;0.62;;;;;23.10;66.90;;;;;;2248583;61;4409;-74
2021/06/18 04:47:43;130217.00;0.43;225.70;0.00;0.00;0.62;;;;;23.30;66.30;;;;;;2247837;61;3041;-74
2021/06/18 04:50:09;566638.00;1.89;976.65;0.00;0.00;0.62;;;;;22.80;68.00;;;;;;2245572;61;4680;-74
2021/06/18 04:52:36;304137.00;1.01;525.03;0.00;0.00;0.62;;;;;22.70;68.70;;;;;;2245980;61;4305;-72
2021/06/18 04:55:03;92759.00;0.31;161.07;0.00;0.00;0.62;;;;;22.80;68.60;;;;;;2241775;61;4399;-74
2021/06/18 04:57:29;334331.00;1.11;576.93;117226.00;0.39;203.30;;;;;22.80;68.60;;;;;;2246547;61;2961;-73
2021/06/18 04:59:55;0.00;0.00;0.62;0.00;0.00;0.62;;;;;23.00;68.10;;;;;;2246549;61;2802;-73
2021/06/18 05:02:21;29401.00;0.10;51.55;0.00;0.00;0.62;;;;;23.30;67.10;;;;;;2243936;61;2854;-73
2021/06/18 05:04:46;127516.00;0.43;221.05;0.00;0.00;0.62;;;;;23.40;67.20;;;;;;2245434;61;3489;-72
2021/06/18 05:07:12;0.00;0.00;0.62;0.00;0.00;0.62;;;;;23.10;68.60;;;;;;2246027;61;3663;-69
2021/06/18 05:09:37;151842.00;0.51;262.98;58183.00;0.19;101.34;;;;;23.20;69.10;;;;;;2243713;61;2713;-71
2021/06/18 05:12:03;103399.00;0.34;179.44;0.00;0.00;0.62;;;;;23.20;69.60;;;;;;2246378;61;3531;-75
2021/06/18 05:14:29;24096.00;0.08;42.36;0.00;0.00;0.62;;;;;23.30;68.60;;;;;;2247143;61;2452;-70
2021/06/18 05:16:54;728112.00;2.43;1256.02;0.00;0.00;0.62;;;;;23.70;66.40;;;;;;2247798;61;2824;-72
2021/06/18 05:19:21;381921.00;1.27;658.73;0.00;0.00;0.62;;;;;23.90;66.70;;;;;;2246508;61;4531;-69
2021/06/18 05:21:47;284518.00;0.95;491.30;0.00;0.00;0.62;;;;;24.00;66.90;;;;;;2246812;61;3184;-71
2021/06/18 05:24:12;390331.00;1.30;673.18;0.00;0.00;0.62;;;;;24.00;67.10;;;;;;2245967;61;4358;-71
2021/06/18 05:26:38;1014678.00;3.38;1758.49;0.00;0.00;0.62;;;;;24.00;67.30;;;;;;2242124;61;2787;-72
2021/06/18 05:29:03;254975.00;0.85;440.51;43703.00;0.15;76.29;;;;;24.10;67.30;;;;;;2242772;61;4170;-76
2021/06/18 05:31:29;0.00;0.00;0.62;0.00;0.00;0.62;;;;;24.00;67.60;;;;;;2246840;61;2962;-73
2021/06/18 05:33:55;547914.00;1.83;944.36;28475.00;0.09;49.94;;;;;23.90;67.70;;;;;;2242626;61;2901;-71
2021/06/18 05:36:20;0.00;0.00;0.62;0.00;0.00;0.62;;;;;23.90;67.80;;;;;;2246784;61;3866;-71
2021/06/18 05:38:46;0.00;0.00;0.62;0.00;0.00;0.62;;;;;23.70;69.00;;;;;;2244402;61;4069;-70
2021/06/18 05:41:26;90315.00;0.30;156.85;0.00;0.00;0.62;;;;;23.70;68.90;;;;;;918243;61;10002094;-69
2021/06/18 05:43:52;0.00;0.00;0.62;0.00;0.00;0.62;;;;;23.60;69.00;;;;;;1682408;61;10002278;-70
2021/06/18 05:46:18;261236.00;0.87;451.27;50116.00;0.17;87.39;;;;;23.60;68.90;;;;;;2246555;61;3907;-71
2021/06/18 05:48:43;0.00;0.00;0.62;0.00;0.00;0.62;;;;;23.60;69.30;;;;;;2249054;61;2710;-73
2021/06/18 05:51:09;1220275.00;4.07;2126.92;0.00;0.00;0.62;;;;;23.60;69.40;;;;;;2243860;61;3806;-72
2021/06/18 05:53:34;258178.00;0.86;446.02;103028.00;0.34;178.80;;;;;23.70;69.30;;;;;;2242885;61;4047;-70
2021/06/18 05:56:00;8534.00;0.03;15.41;0.00;0.00;0.62;;;;;23.50;70.30;;;;;;2244927;61;2793;-70
2021/06/18 05:58:26;0.00;0.00;0.62;0.00;0.00;0.62;;;;;23.70;70.00;;;;;;2247804;61;4224;-72
2021/06/18 06:00:51;284479.00;0.95;491.24;140072.00;0.47;242.70;;;;;23.80;69.60;;;;;;2246108;61;4059;-72
2021/06/18 06:03:17;168671.00;0.56;291.98;28792.00;0.10;50.49;;;;;23.80;69.30;;;;;;2246690;61;2884;-70
2021/06/18 06:05:42;32624.00;0.11;57.12;0.00;0.00;0.62;;;;;23.70;69.60;;;;;;2245593;61;3725;-72
2021/06/18 06:08:12;0.00;0.00;0.62;0.00;0.00;0.62;;;;;23.70;70.00;;;;;;2245876;61;4115;-72
2021/06/18 06:10:37;0.00;0.00;0.62;0.00;0.00;0.62;;;;;23.70;70.80;;;;;;2246186;61;2815;-71
2021/06/18 06:13:03;0.00;0.00;0.62;0.00;0.00;0.62;;;;;23.70;70.40;;;;;;2246080;61;3432;-71
2021/06/18 06:15:29;46489.00;0.15;81.11;0.00;0.00;0.62;;;;;23.80;70.80;;;;;;2246406;61;2772;-71
2021/06/18 06:17:54;6894.00;0.02;12.57;0.00;0.00;0.62;;;;;23.80;70.70;;;;;;2245352;61;3540;-73
2021/06/18 06:20:20;230743.00;0.77;398.83;15351.00;0.05;27.22;;;;;23.80;70.90;;;;;;2245626;61;3016;-73
2021/06/18 06:22:45;20688.00;0.07;36.46;0.00;0.00;0.62;;;;;23.90;70.80;;;;;;2245992;61;4098;-71
2021/06/18 06:25:11;349402.00;1.16;602.83;155738.00;0.52;269.70;;;;;23.90;70.50;;;;;;2244694;61;3383;-71
2021/06/18 06:27:37;0.00;0.00;0.62;0.00;0.00;0.62;;;;;24.00;69.30;;;;;;2245118;61;3057;-71
2021/06/18 06:30:04;9636.00;0.03;17.32;0.00;0.00;0.62;;;;;24.10;69.40;;;;;;2246756;61;3769;-70
2021/06/18 06:32:30;0.00;0.00;0.62;0.00;0.00;0.62;;;;;24.20;69.40;;;;;;2247713;61;3201;-69
2021/06/18 06:34:57;68395.00;0.23;118.99;0.00;0.00;0.62;;;;;24.10;69.80;;;;;;2241764;61;3759;-69
2021/06/18 06:37:23;287739.00;0.96;496.84;0.00;0.00;0.62;;;;;24.20;69.90;;;;;;2242574;61;3592;-70
2021/06/18 06:39:49;243958.00;0.81;421.56;160473.00;0.53;277.85;;;;;24.20;70.20;;;;;;2245975;61;2847;-70
2021/06/18 06:42:15;0.00;0.00;0.62;0.00;0.00;0.62;;;;;24.20;70.30;;;;;;2245831;61;3482;-70
2021/06/18 06:44:40;214956.00;0.72;371.66;126018.00;0.42;218.46;;;;;24.20;70.30;;;;;;2246337;61;3723;-70
2021/06/18 06:47:06;142379.00;0.47;246.67;33119.00;0.11;57.98;;;;;24.20;70.50;;;;;;2245102;61;3947;-70
2021/06/18 06:49:32;62500.00;0.21;108.80;0.00;0.00;0.62;;;;;24.30;70.30;;;;;;2244141;61;3490;-71
2021/06/18 06:51:57;4678.00;0.02;8.73;0.00;0.00;0.62;;;;;24.30;70.70;;;;;;2244041;61;3580;-70
2021/06/18 06:54:25;25476.00;0.08;44.75;0.00;0.00;0.62;;;;;24.40;70.50;;;;;;2246499;61;4498;-70
2021/06/18 06:56:54;0.00;0.00;0.62;0.00;0.00;0.62;;;;;24.40;69.90;;;;;;2244976;61;8099;-70
2021/06/18 06:59:19;107720.00;0.36;186.90;0.00;0.00;0.62;;;;;24.40;69.90;;;;;;2244273;61;7719;-70
2021/06/18 07:01:45;62468.00;0.21;108.74;0.00;0.00;0.62;;;;;24.40;69.80;;;;;;2244295;61;8301;-70
2021/06/18 07:04:11;0.00;0.00;0.62;0.00;0.00;0.62;;;;;24.50;70.30;;;;;;2245114;61;5489;-69
2021/06/18 07:06:38;0.00;0.00;0.62;0.00;0.00;0.62;;;;;24.50;70.20;;;;;;2244390;61;3050;-69
2021/06/18 07:09:04;39905.00;0.13;69.72;0.00;0.00;0.62;;;;;24.50;70.40;;;;;;2246263;61;4675;-69
2021/06/18 07:11:30;743370.00;2.48;1282.53;0.00;0.00;0.62;;;;;24.50;70.30;;;;;;2249397;61;3085;-70
2021/06/18 07:13:56;5134.00;0.02;9.52;0.00;0.00;0.62;;;;;24.60;70.40;;;;;;2243462;61;4580;-71
2021/06/18 07:16:22;1059651.00;3.53;1838.41;97777.00;0.33;169.73;;;;;24.70;68.50;;;;;;2245602;61;3477;-68
2021/06/18 07:18:47;189579.00;0.63;327.98;0.00;0.00;0.62;;;;;24.70;67.20;;;;;;2245952;61;4012;-69
2021/06/18 07:21:13;49975.00;0.17;87.14;10962.00;0.04;19.62;;;;;24.80;65.90;;;;;;2245632;61;6798;-73
2021/06/18 07:23:39;116024824.00;386.75;63265620.00;0.00;0.00;0.62;;;;;24.80;64.60;;;;;;2245732;61;4201;-70
2021/06/18 07:26:04;21189.00;0.07;37.33;0.00;0.00;0.62;;;;;24.80;63.70;;;;;;2245304;61;2906;-72
2021/06/18 07:28:30;149860.00;0.50;259.57;0.00;0.00;0.62;;;;;24.90;62.80;;;;;;2248892;61;2831;-70
2021/06/18 07:30:56;64997.00;0.22;113.11;0.00;0.00;0.62;;;;;24.90;61.80;;;;;;2245206;61;2375;-69
2021/06/18 07:33:21;301707.00;1.01;520.85;0.00;0.00;0.62;;;;;24.90;61.20;;;;;;2242087;61;3382;-70
2021/06/18 07:35:47;343276.00;1.14;592.30;0.00;0.00;0.62;;;;;24.90;60.50;;;;;;2244686;61;3985;-69
2021/06/18 07:38:12;384244.00;1.28;662.72;0.00;0.00;0.62;;;;;24.90;60.00;;;;;;2245844;61;3381;-71
2021/06/18 07:40:38;120620.00;0.40;209.15;0.00;0.00;0.62;;;;;24.90;59.40;;;;;;2244532;61;4913;-70
2021/06/18 07:43:04;386657.00;1.29;666.87;0.00;0.00;0.62;;;;;24.90;58.90;;;;;;2245956;61;3137;-70
2021/06/18 07:45:29;53945.00;0.18;94.01;0.00;0.00;0.62;;;;;25.00;58.10;;;;;;2246803;61;2709;-67
2021/06/18 07:47:55;1608036.00;5.36;2848.11;360677.00;1.20;622.21;;;;;25.00;57.90;;;;;;2248176;61;2600;-69
2021/06/18 07:50:21;116680.00;0.39;202.36;0.00;0.00;0.62;;;;;24.90;57.40;;;;;;2245329;61;3481;-68
2021/06/18 07:52:47;43145.00;0.14;75.33;0.00;0.00;0.62;;;;;24.80;57.30;;;;;;2246913;61;2399;-68
2021/06/18 07:55:17;49440.00;0.16;86.22;0.00;0.00;0.62;;;;;24.70;57.10;;;;;;2241769;61;4696;-69
2021/06/18 07:57:42;0.00;0.00;0.62;0.00;0.00;0.62;;;;;24.70;56.90;;;;;;2249074;61;2318;-69
2021/06/18 08:00:08;0.00;0.00;0.62;0.00;0.00;0.62;;;;;24.60;56.70;;;;;;2245698;61;2733;-70
2021/06/18 08:02:34;233700.00;0.78;403.91;66379.00;0.22;115.50;;;;;24.50;56.50;;;;;;2242410;61;3613;-69
2021/06/18 08:05:00;198754.00;0.66;343.78;45317.00;0.15;79.09;;;;;24.50;56.40;;;;;;2247935;61;2282;-69
2021/06/18 08:07:25;0.00;0.00;0.62;0.00;0.00;0.62;;;;;24.50;58.00;;;;;;2244595;61;4060;-69
2021/06/18 08:09:51;0.00;0.00;0.62;0.00;0.00;0.62;;;;;24.50;57.80;;;;;;2248803;61;3312;-69
2021/06/18 08:12:17;0.00;0.00;0.62;0.00;0.00;0.62;;;;;24.50;57.60;;;;;;2245875;61;3856;-69
2021/06/18 08:14:43;0.00;0.00;0.62;0.00;0.00;0.62;;;;;24.50;57.40;;;;;;2242897;61;2585;-69
2021/06/18 08:17:09;307059.00;1.02;530.05;232497.00;0.77;401.84;;;;;24.50;56.40;;;;;;2239234;61;6274;-69
2021/06/18 08:19:34;0.00;0.00;0.62;0.00;0.00;0.62;;;;;24.50;56.00;;;;;;2240781;61;5958;-69
2021/06/18 08:22:00;0.00;0.00;0.62;0.00;0.00;0.62;;;;;24.50;55.80;;;;;;2236794;61;5886;-71
2021/06/18 08:24:26;0.00;0.00;0.62;0.00;0.00;0.62;;;;;24.40;55.70;;;;;;2228384;61;6377;-70
2021/06/18 08:26:52;28629.00;0.10;50.21;0.00;0.00;0.62;;;;;24.40;55.40;;;;;;2245427;61;6316;-70
2021/06/18 08:29:17;0.00;0.00;0.62;0.00;0.00;0.62;;;;;24.40;55.10;;;;;;2244788;61;6207;-70
2021/06/18 08:31:43;0.00;0.00;0.62;0.00;0.00;0.62;;;;;24.40;55.10;;;;;;2245240;61;2518;-70
2021/06/18 08:34:09;0.00;0.00;0.62;0.00;0.00;0.62;;;;;24.40;54.70;;;;;;2245547;61;3510;-73
2021/06/18 08:36:35;0.00;0.00;0.62;0.00;0.00;0.62;;;;;24.40;54.80;;;;;;2244040;61;3352;-70
2021/06/18 08:39:02;227175.00;0.76;392.69;143980.00;0.48;249.43;;;;;24.40;54.70;;;;;;2242094;61;4972;-71
2021/06/18 08:41:28;0.00;0.00;0.62;0.00;0.00;0.62;;;;;24.40;54.90;;;;;;2240786;61;6252;-69
2021/06/18 08:43:53;0.00;0.00;0.62;0.00;0.00;0.62;;;;;24.40;55.30;;;;;;2241064;61;5990;-71
2021/06/18 08:46:19;0.00;0.00;0.62;0.00;0.00;0.62;;;;;24.50;55.70;;;;;;2242730;61;5961;-72
2021/06/18 08:48:47;32322.00;0.11;56.60;0.00;0.00;0.62;;;;;24.50;56.30;;;;;;2245722;61;4118;-72
2021/06/18 08:51:13;68471.00;0.23;119.12;0.00;0.00;0.62;;;;;24.70;56.50;;;;;;2242511;61;2745;-73
2021/06/18 08:53:38;0.00;0.00;0.62;0.00;0.00;0.62;;;;;24.80;56.50;;;;;;2242125;61;6428;-77
2021/06/18 08:56:05;0.00;0.00;0.62;0.00;0.00;0.62;;;;;24.90;56.70;;;;;;2242086;61;2697;-75
2021/06/18 08:58:31;15949.00;0.05;28.25;0.00;0.00;0.62;;;;;25.00;57.00;;;;;;2243710;61;2745;-73
2021/06/18 09:00:56;0.00;0.00;0.62;0.00;0.00;0.62;;;;;25.10;57.30;;;;;;2245124;61;3839;-67
2021/06/18 09:03:37;98423.00;0.33;170.85;0.00;0.00;0.62;;;;;25.10;58.60;;;;;;2246682;61;3009;-68
2021/06/18 09:06:21;244365.00;0.81;422.26;110460.00;0.37;191.62;;;;;25.10;60.30;;;;;;2246410;61;6387;-69
2021/06/18 09:08:47;0.00;0.00;0.62;0.00;0.00;0.62;;;;;25.00;60.60;;;;;;2247046;61;3466;-69
2021/06/18 09:11:18;0.00;0.00;0.62;0.00;0.00;0.62;;;;;25.10;61.20;;;;;;2243694;61;3848;-71
2021/06/18 09:13:44;73531.00;0.25;127.86;0.00;0.00;0.62;;;;;25.10;61.50;;;;;;2250535;61;2389;-71
2021/06/18 09:16:10;0.00;0.00;0.62;0.00;0.00;0.62;;;;;25.00;61.80;;;;;;2239746;61;3368;-68
2021/06/18 09:18:36;0.00;0.00;0.62;0.00;0.00;0.62;;;;;25.00;61.80;;;;;;2247738;61;3102;-69
2021/06/18 09:21:02;0.00;0.00;0.62;0.00;0.00;0.62;;;;;25.10;61.60;;;;;;2245927;61;4871;-68
2021/06/18 09:23:30;0.00;0.00;0.62;0.00;0.00;0.62;;;;;25.10;61.60;;;;;;2247048;61;2890;-67
2021/06/18 09:26:15;0.00;0.00;0.62;0.00;0.00;0.62;;;;;25.10;61.60;;;;;;2248018;61;3582;-67
2021/06/18 09:28:59;0.00;0.00;0.62;0.00;0.00;0.62;;;;;25.10;61.50;;;;;;2248201;61;2722;-69
2021/06/18 09:31:26;0.00;0.00;0.62;0.00;0.00;0.62;;;;;25.20;61.50;;;;;;2247685;61;2809;-69
2021/06/18 09:33:52;0.00;0.00;0.62;0.00;0.00;0.62;;;;;25.20;61.50;;;;;;2246910;61;4111;-70
2021/06/18 09:36:18;0.00;0.00;0.62;0.00;0.00;0.62;;;;;25.20;61.40;;;;;;2247388;61;2777;-69
2021/06/18 09:38:55;0.00;0.00;0.62;0.00;0.00;0.62;;;;;25.20;61.40;;;;;;2243206;61;3916;-69
2021/06/18 09:41:36;0.00;0.00;0.62;0.00;0.00;0.62;;;;;25.20;61.60;;;;;;2242788;61;6156;-66
2021/06/18 09:44:04;0.00;0.00;0.62;0.00;0.00;0.62;;;;;25.30;62.10;;;;;;2245418;61;3439;-71
2021/06/18 09:46:40;119986.00;0.40;208.06;0.00;0.00;0.62;;;;;25.30;62.30;;;;;;2246173;61;3503;-69
2021/06/18 09:49:05;0.00;0.00;0.62;0.00;0.00;0.62;;;;;25.30;62.50;;;;;;2245278;61;3984;-72
2021/06/18 09:51:31;0.00;0.00;0.62;0.00;0.00;0.62;;;;;25.40;62.90;;;;;;2247097;61;2438;-70
2021/06/18 09:53:57;0.00;0.00;0.62;0.00;0.00;0.62;;;;;25.40;63.30;;;;;;2247847;61;2864;-68
2021/06/18 09:56:22;0.00;0.00;0.62;0.00;0.00;0.62;;;;;25.40;63.40;;;;;;2246738;61;4152;-67
2021/06/18 09:58:48;0.00;0.00;0.62;0.00;0.00;0.62;;;;;25.40;62.40;;;;;;2246197;61;2868;-71
2021/06/18 10:01:22;0.00;0.00;0.62;0.00;0.00;0.62;;;;;25.50;62.80;;;;;;2246125;61;4438;-68
2021/06/18 10:03:57;0.00;0.00;0.62;0.00;0.00;0.62;;;;;25.50;62.80;;;;;;2242952;61;3476;-67
2021/06/18 10:06:24;0.00;0.00;0.62;0.00;0.00;0.62;;;;;25.50;63.70;;;;;;2241285;61;4116;-68
2021/06/18 10:08:50;78800.00;0.26;136.96;0.00;0.00;0.62;;;;;25.40;61.60;;;;;;2245651;61;3667;-68
2021/06/18 10:11:15;0.00;0.00;0.62;0.00;0.00;0.62;;;;;25.40;63.70;;;;;;2244781;61;3765;-68
2021/06/18 10:13:41;0.00;0.00;0.62;0.00;0.00;0.62;;;;;25.40;64.10;;;;;;2246190;61;3378;-68
2021/06/18 10:16:06;0.00;0.00;0.62;0.00;0.00;0.62;;;;;25.30;64.10;;;;;;2245318;61;4168;-68
2021/06/18 10:18:32;0.00;0.00;0.62;0.00;0.00;0.62;;;;;25.30;64.10;;;;;;2250165;48;2876;-68
2021/06/18 10:20:58;209245.00;0.70;361.84;161062.00;0.54;278.87;;;;;25.30;63.80;;;;;;2250953;61;910;-70